Time;durP1;ratioP1;P1;durP2;ratioP2;P2;SDS_P1;SDS_P2;PMS_P1;PMS_P2;Temp;Humidity;BMP_temperature;BMP_pressure;BME280_temperature;BME280_humidity;BME280_pressure;Samples;Min_cycle;Max_cycle;Signal;HPM_P1;HPM_P2
2023/09/21 00:00:34;;;;;;;1999.90;999.90;;;18.50;99.90;;;;;;5032488;28;20407;-68
2023/09/21 00:03:00;;;;;;;1999.90;999.90;;;18.50;99.90;;;;;;5032151;28;20248;-67
2023/09/21 00:05:31;;;;;;;1999.90;999.90;;;18.60;99.90;;;;;;5032063;28;20404;-68
2023/09/21 00:07:57;;;;;;;1999.90;999.90;;;18.60;99.90;;;;;;5033683;28;20178;-68
2023/09/21 00:10:23;;;;;;;1999.90;999.90;;;18.70;99.90;;;;;;5036194;28;20653;-68
2023/09/21 00:12:49;;;;;;;1999.90;999.90;;;18.80;99.90;;;;;;5035888;28;20206;-68
2023/09/21 00:15:19;;;;;;;1999.90;999.90;;;18.80;99.90;;;;;;5034488;28;20425;-67
2023/09/21 00:17:49;;;;;;;1999.90;999.90;;;18.90;99.90;;;;;;5036094;28;20183;-68
2023/09/21 00:20:25;;;;;;;1999.90;999.90;;;18.90;99.90;;;;;;5036014;28;20484;-68
2023/09/21 00:22:53;;;;;;;1999.90;999.90;;;18.90;99.90;;;;;;5036005;28;20480;-68
2023/09/21 00:25:19;;;;;;;1999.90;999.90;;;19.10;99.90;;;;;;5036155;28;20418;-68
2023/09/21 00:27:44;;;;;;;1999.90;999.90;;;19.10;99.90;;;;;;5035816;28;20433;-68
2023/09/21 00:30:11;;;;;;;1999.90;999.90;;;19.10;99.90;;;;;;5035722;28;20454;-68
2023/09/21 00:32:38;;;;;;;1999.90;999.90;;;19.10;99.90;;;;;;5036129;28;20197;-67
2023/09/21 00:35:09;;;;;;;1999.90;999.90;;;19.20;99.90;;;;;;5035858;28;20410;-68
2023/09/21 00:37:36;;;;;;;1999.90;999.90;;;19.20;99.90;;;;;;5036019;28;20410;-67
2023/09/21 00:40:05;;;;;;;1999.90;999.90;;;19.30;99.90;;;;;;5036041;28;21091;-68
2023/09/21 00:42:30;;;;;;;1999.90;999.90;;;19.30;99.90;;;;;;5035780;28;20430;-68
2023/09/21 00:44:56;;;;;;;1999.90;999.90;;;19.40;99.90;;;;;;5035409;28;20498;-68
2023/09/21 00:47:21;;;;;;;1999.90;999.90;;;19.40;99.90;;;;;;5035639;28;20168;-67
2023/09/21 00:49:47;;;;;;;1999.90;999.90;;;19.40;99.90;;;;;;5035846;28;20200;-67
2023/09/21 00:52:13;;;;;;;1999.90;999.90;;;19.40;99.90;;;;;;5035808;28;20543;-68
2023/09/21 00:54:41;;;;;;;1999.90;999.90;;;19.50;99.90;;;;;;5035609;28;20258;-68
2023/09/21 00:57:11;;;;;;;1999.90;999.90;;;19.40;99.90;;;;;;5035486;28;20168;-68
2023/09/21 00:59:39;;;;;;;1999.90;999.90;;;19.40;99.90;;;;;;5035825;28;20472;-68
2023/09/21 01:02:05;;;;;;;1999.90;999.90;;;19.40;99.90;;;;;;5035518;28;20424;-68
2023/09/21 01:04:30;;;;;;;1999.90;999.90;;;19.40;99.90;;;;;;5035101;28;20431;-68
2023/09/21 01:06:56;;;;;;;1999.90;999.90;;;19.50;99.90;;;;;;5035128;28;20950;-68
2023/09/21 01:09:22;;;;;;;1999.90;999.90;;;19.50;99.90;;;;;;5035080;28;20196;-68
2023/09/21 01:11:48;;;;;;;1999.90;999.90;;;19.50;99.90;;;;;;5034948;28;20200;-68
2023/09/21 01:14:14;;;;;;;1999.90;999.90;;;19.50;99.90;;;;;;5034866;28;20419;-68
2023/09/21 01:16:40;;;;;;;1999.90;999.90;;;19.50;99.90;;;;;;5035142;28;20407;-67
2023/09/21 01:19:05;;;;;;;1999.90;999.90;;;19.50;99.90;;;;;;5034978;28;20544;-68
2023/09/21 01:21:40;;;;;;;1999.90;999.90;;;19.50;99.90;;;;;;5035298;28;20176;-68
2023/09/21 01:24:07;;;;;;;1999.90;999.90;;;19.50;99.90;;;;;;5034752;28;20219;-67
2023/09/21 01:26:33;;;;;;;1999.90;999.90;;;19.40;99.90;;;;;;5034983;28;20496;-68
2023/09/21 01:28:59;;;;;;;1999.90;999.90;;;19.40;99.90;;;;;;5034717;28;20477;-68
2023/09/21 01:31:25;;;;;;;1999.90;999.90;;;19.40;99.90;;;;;;5035018;28;20176;-68
2023/09/21 01:33:50;;;;;;;1999.90;999.90;;;19.40;99.90;;;;;;5034862;28;20406;-68
2023/09/21 01:36:16;;;;;;;1999.90;999.90;;;19.30;99.90;;;;;;5034310;28;20555;-67
2023/09/21 01:38:46;;;;;;;1999.90;999.90;;;19.30;99.90;;;;;;5034815;28;20176;-68
2023/09/21 01:41:19;;;;;;;1999.90;999.90;;;19.30;99.90;;;;;;5034782;28;20437;-68
2023/09/21 01:43:44;;;;;;;1999.90;999.90;;;19.20;99.90;;;;;;5034438;28;20431;-68
2023/09/21 01:46:10;;;;;;;1999.90;999.90;;;19.20;99.90;;;;;;5034292;28;20424;-68
2023/09/21 01:48:36;;;;;;;1999.90;999.90;;;19.00;99.90;;;;;;5034329;28;20262;-68
2023/09/21 01:51:02;;;;;;;1999.90;999.90;;;19.10;99.90;;;;;;5034162;28;20555;-69
2023/09/21 01:53:28;;;;;;;1999.90;999.90;;;19.00;99.90;;;;;;5033632;28;20434;-68
2023/09/21 01:55:53;;;;;;;1999.90;999.90;;;18.90;99.90;;;;;;5033492;28;20207;-69
2023/09/21 01:58:23;;;;;;;1999.90;999.90;;;18.90;99.90;;;;;;5033659;28;20206;-67
2023/09/21 02:00:50;;;;;;;1999.90;999.90;;;18.70;99.90;;;;;;5033602;28;20528;-67
2023/09/21 02:03:24;;;;;;;1999.90;999.90;;;18.60;99.90;;;;;;5033320;28;20482;-68
2023/09/21 02:05:50;;;;;;;1999.90;999.90;;;18.60;99.90;;;;;;5033480;28;20388;-68
2023/09/21 02:08:19;;;;;;;1999.90;999.90;;;18.50;99.90;;;;;;5033450;28;20423;-68
2023/09/21 02:10:49;;;;;;;1999.90;999.90;;;18.50;99.90;;;;;;5033402;28;20545;-69
2023/09/21 02:13:15;;;;;;;1999.90;999.90;;;18.50;99.90;;;;;;5033088;28;20453;-67
2023/09/21 02:15:41;;;;;;;1999.90;999.90;;;18.50;99.90;;;;;;5033112;28;20851;-68
2023/09/21 02:18:08;;;;;;;1999.90;999.90;;;18.40;99.90;;;;;;5033186;28;20179;-69
2023/09/21 02:20:35;;;;;;;1999.90;999.90;;;18.40;99.90;;;;;;5033348;28;20235;-68
2023/09/21 02:23:02;;;;;;;1999.90;999.90;;;18.40;99.90;;;;;;5033096;28;20441;-68
2023/09/21 02:25:34;;;;;;;1999.90;999.90;;;18.30;99.90;;;;;;5032908;28;20416;-68
2023/09/21 02:28:04;;;;;;;1999.90;999.90;;;18.30;99.90;;;;;;5032968;28;20409;-68
2023/09/21 02:30:32;;;;;;;1999.90;999.90;;;18.40;99.90;;;;;;5032541;28;20538;-68
2023/09/21 02:32:59;;;;;;;1999.90;999.90;;;18.30;99.90;;;;;;5032820;28;20795;-68
2023/09/21 02:35:29;;;;;;;1999.90;999.90;;;18.30;99.90;;;;;;5032712;28;20426;-68
2023/09/21 02:37:56;;;;;;;1999.90;999.90;;;18.30;99.90;;;;;;5017121;28;20408;-69
2023/09/21 02:40:23;;;;;;;1999.90;999.90;;;18.30;99.90;;;;;;5013083;28;21116;-69
2023/09/21 02:42:56;;;;;;;1999.90;999.90;;;18.30;99.90;;;;;;5012964;28;20439;-69
2023/09/21 02:45:26;;;;;;;1999.90;999.90;;;18.20;99.90;;;;;;5012878;28;20423;-67
2023/09/21 02:47:54;;;;;;;1999.90;999.90;;;18.20;99.90;;;;;;5013011;28;20415;-69
2023/09/21 02:50:27;;;;;;;1999.90;999.90;;;18.20;99.90;;;;;;5012883;28;20464;-68
2023/09/21 02:53:04;;;;;;;1999.90;999.90;;;18.20;99.90;;;;;;5012779;28;20443;-68
2023/09/21 02:55:29;;;;;;;1999.90;999.90;;;18.20;99.90;;;;;;5012836;28;20414;-68
2023/09/21 02:58:04;;;;;;;1999.90;999.90;;;18.10;99.90;;;;;;5012851;28;20407;-68
2023/09/21 03:03:00;;;;;;;1999.90;999.90;;;18.10;99.90;;;;;;5012623;28;20427;-68
2023/09/21 03:05:27;;;;;;;1999.90;999.90;;;18.10;99.90;;;;;;5012664;28;20426;-67
2023/09/21 03:07:54;;;;;;;1999.90;999.90;;;18.10;99.90;;;;;;5012655;28;20926;-68
2023/09/21 03:10:25;;;;;;;1999.90;999.90;;;18.10;99.90;;;;;;5012594;28;20459;-69
2023/09/21 03:12:52;;;;;;;1999.90;999.90;;;18.10;99.90;;;;;;5012421;28;20506;-69
2023/09/21 03:15:22;;;;;;;1999.90;999.90;;;18.10;99.90;;;;;;5012282;28;20486;-68
2023/09/21 03:17:52;;;;;;;1999.90;999.90;;;18.10;99.90;;;;;;5012428;28;20925;-68
2023/09/21 03:20:37;;;;;;;1999.90;999.90;;;18.10;99.90;;;;;;5012404;28;20936;-68
2023/09/21 03:23:12;;;;;;;1999.90;999.90;;;18.10;99.90;;;;;;5012498;28;20949;-68
2023/09/21 03:25:42;;;;;;;1999.90;999.90;;;18.10;99.90;;;;;;5012271;28;20428;-68
2023/09/21 03:28:15;;;;;;;1999.90;999.90;;;18.10;99.90;;;;;;5012345;28;20411;-68
2023/09/21 03:30:48;;;;;;;1999.90;999.90;;;18.10;99.90;;;;;;5012235;28;20480;-68
2023/09/21 03:33:15;;;;;;;1999.90;999.90;;;18.20;99.90;;;;;;5012304;28;20793;-69
2023/09/21 03:35:41;;;;;;;1999.90;999.90;;;18.20;99.90;;;;;;5012024;28;20441;-68
2023/09/21 03:38:12;;;;;;;1999.90;999.90;;;18.30;99.90;;;;;;5012118;28;20433;-68
2023/09/21 03:40:39;;;;;;;1999.90;999.90;;;18.30;99.90;;;;;;5012519;28;20790;-68
2023/09/21 03:43:06;;;;;;;1999.90;999.90;;;18.40;99.90;;;;;;5012214;28;20496;-68
2023/09/21 03:45:32;;;;;;;1999.90;999.90;;;18.40;99.90;;;;;;5012483;28;20426;-68
2023/09/21 03:48:03;;;;;;;1999.90;999.90;;;18.30;99.90;;;;;;5013182;28;20408;-68
2023/09/21 03:50:29;;;;;;;1999.90;999.90;;;18.30;99.90;;;;;;5012764;28;20501;-67
2023/09/21 03:52:55;;;;;;;1999.90;999.90;;;18.30;99.90;;;;;;5012590;28;20927;-68
2023/09/21 03:55:21;;;;;;;1999.90;999.90;;;18.30;99.90;;;;;;5012863;28;20172;-68
2023/09/21 03:57:47;;;;;;;1999.90;999.90;;;18.30;99.90;;;;;;5013223;28;20199;-68
2023/09/21 04:02:51;;;;;;;1999.90;999.90;;;18.30;99.90;;;;;;5012808;28;20434;-68
2023/09/21 04:05:20;;;;;;;1999.90;999.90;;;18.30;99.90;;;;;;5012598;28;20426;-68
2023/09/21 04:07:46;;;;;;;1999.90;999.90;;;18.30;99.90;;;;;;5012284;28;20460;-68
2023/09/21 04:10:12;;;;;;;1999.90;999.90;;;18.30;99.90;;;;;;5022740;28;20463;-68
2023/09/21 04:12:41;;;;;;;1999.90;999.90;;;18.30;99.90;;;;;;5032500;28;20470;-68
2023/09/21 04:15:08;;;;;;;1999.90;999.90;;;18.30;99.90;;;;;;5025646;28;20195;-68
2023/09/21 04:17:33;;;;;;;1999.90;999.90;;;18.20;99.90;;;;;;5024013;28;20417;-68
2023/09/21 04:19:59;;;;;;;1999.90;999.90;;;18.10;99.90;;;;;;5032217;28;20409;-68
2023/09/21 04:22:25;;;;;;;1999.90;999.90;;;18.10;99.90;;;;;;5025839;28;20703;-67
2023/09/21 04:24:51;;;;;;;1999.90;999.90;;;18.20;99.90;;;;;;5015941;28;20249;-68
2023/09/21 04:27:17;;;;;;;1999.90;999.90;;;18.20;99.90;;;;;;5031423;28;20422;-68
2023/09/21 04:29:43;;;;;;;1999.90;999.90;;;18.10;99.90;;;;;;5032262;28;20449;-68
2023/09/21 04:32:09;;;;;;;1999.90;999.90;;;18.10;99.90;;;;;;5032372;28;20452;-68
2023/09/21 04:34:36;;;;;;;1999.90;999.90;;;18.10;99.90;;;;;;5030478;28;20176;-68
2023/09/21 04:37:02;;;;;;;1999.90;999.90;;;18.20;99.90;;;;;;5020897;28;20467;-67
2023/09/21 04:39:28;;;;;;;1999.90;999.90;;;18.20;99.90;;;;;;5011602;28;21146;-68
2023/09/21 04:41:53;;;;;;;1999.90;999.90;;;18.20;99.90;;;;;;5011543;28;20448;-68
2023/09/21 04:44:19;;;;;;;1999.90;999.90;;;18.20;99.90;;;;;;5021841;28;20439;-68
2023/09/21 04:46:45;;;;;;;1999.90;999.90;;;18.20;99.90;;;;;;5031135;28;20187;-68
2023/09/21 04:49:10;;;;;;;1999.90;999.90;;;18.30;99.90;;;;;;5031263;28;20279;-68
2023/09/21 04:51:38;;;;;;;1999.90;999.90;;;18.30;99.90;;;;;;5031064;28;20305;-68
2023/09/21 04:54:04;;;;;;;1999.90;999.90;;;18.30;99.90;;;;;;5032459;28;20254;-68
2023/09/21 04:56:29;;;;;;;1999.90;999.90;;;18.20;99.90;;;;;;5034954;28;20489;-68
2023/09/21 04:58:55;;;;;;;1999.90;999.90;;;18.20;99.90;;;;;;5034870;28;20748;-68
2023/09/21 05:01:25;;;;;;;1999.90;999.90;;;18.20;99.90;;;;;;5034786;28;20197;-68
2023/09/21 05:03:50;;;;;;;1999.90;999.90;;;18.20;99.90;;;;;;5034564;28;20430;-68
2023/09/21 05:06:18;;;;;;;1999.90;999.90;;;18.20;99.90;;;;;;5034554;28;20432;-68
2023/09/21 05:08:44;;;;;;;1999.90;999.90;;;18.10;99.90;;;;;;5030422;28;20176;-69
2023/09/21 05:11:10;;;;;;;1999.90;999.90;;;18.10;99.90;;;;;;5026393;28;20791;-68
2023/09/21 05:13:36;;;;;;;1999.90;999.90;;;18.10;99.90;;;;;;5034266;28;20451;-68
2023/09/21 05:16:03;;;;;;;1999.90;999.90;;;18.10;99.90;;;;;;5034286;28;20401;-68
2023/09/21 05:18:30;;;;;;;1999.90;999.90;;;18.10;99.90;;;;;;5034350;28;20466;-68
2023/09/21 05:20:56;;;;;;;1999.90;999.90;;;18.10;99.90;;;;;;5034598;28;20427;-68
2023/09/21 05:23:21;;;;;;;1999.90;999.90;;;18.10;99.90;;;;;;5034208;28;21009;-68
2023/09/21 05:25:47;;;;;;;1999.90;999.90;;;18.10;99.90;;;;;;5034102;28;20421;-68
2023/09/21 05:28:13;;;;;;;1999.90;999.90;;;18.20;99.90;;;;;;5034224;28;20176;-68
2023/09/21 05:30:39;;;;;;;1999.90;999.90;;;18.10;99.90;;;;;;5034117;28;20258;-69
2023/09/21 05:33:05;;;;;;;1999.90;999.90;;;18.20;99.90;;;;;;5034054;28;20185;-68
2023/09/21 05:35:31;;;;;;;1999.90;999.90;;;18.20;99.90;;;;;;5034164;28;20175;-68
2023/09/21 05:37:57;;;;;;;1999.90;999.90;;;18.30;99.90;;;;;;5034557;28;20916;-68
2023/09/21 05:40:22;;;;;;;1999.90;999.90;;;18.20;99.90;;;;;;5023871;28;20186;-68
2023/09/21 05:42:48;;;;;;;1999.90;999.90;;;18.20;99.90;;;;;;5028308;28;20198;-69
2023/09/21 05:45:14;;;;;;;1999.90;999.90;;;18.30;99.90;;;;;;5032668;28;20200;-68
2023/09/21 05:47:39;;;;;;;1999.90;999.90;;;18.30;99.90;;;;;;5034038;28;20221;-68
2023/09/21 05:50:06;;;;;;;1999.90;999.90;;;18.40;99.90;;;;;;5034008;28;20676;-68
2023/09/21 05:52:34;;;;;;;1999.90;999.90;;;18.40;99.90;;;;;;5033665;28;20191;-68
2023/09/21 05:55:00;;;;;;;1999.90;999.90;;;18.50;99.90;;;;;;5033516;28;20772;-68
2023/09/21 05:57:27;;;;;;;1999.90;999.90;;;18.70;99.90;;;;;;5033653;28;20435;-68
2023/09/21 05:59:53;;;;;;;1999.90;999.90;;;18.70;99.90;;;;;;5033662;28;20407;-68
2023/09/21 06:02:19;;;;;;;1999.90;999.90;;;18.70;99.90;;;;;;5033494;28;20797;-67
2023/09/21 06:04:46;;;;;;;1999.90;999.90;;;18.80;99.90;;;;;;5033080;28;20921;-67
2023/09/21 06:07:12;;;;;;;1999.90;999.90;;;18.90;99.90;;;;;;5032919;28;20936;-67
2023/09/21 06:09:38;;;;;;;1999.90;999.90;;;18.90;99.90;;;;;;5033516;28;20448;-68
2023/09/21 06:12:07;;;;;;;1999.90;999.90;;;19.00;99.90;;;;;;5033448;28;20544;-68
2023/09/21 06:14:35;;;;;;;1999.90;999.90;;;19.10;99.90;;;;;;5033314;28;20409;-67
2023/09/21 06:17:00;;;;;;;1999.90;999.90;;;19.10;99.90;;;;;;5033293;28;20820;-69
2023/09/21 06:19:26;;;;;;;1999.90;999.90;;;19.20;99.90;;;;;;5033203;28;20414;-68
2023/09/21 06:21:56;;;;;;;1999.90;999.90;;;19.20;99.90;;;;;;5033170;28;20240;-67
2023/09/21 06:24:24;;;;;;;1999.90;999.90;;;19.20;99.90;;;;;;5033130;28;20409;-69
2023/09/21 06:26:52;;;;;;;1999.90;999.90;;;19.30;99.90;;;;;;5033148;28;20413;-68
2023/09/21 06:29:19;;;;;;;1999.90;999.90;;;19.30;99.90;;;;;;5033018;28;20878;-68
2023/09/21 06:31:46;;;;;;;1999.90;999.90;;;19.60;99.90;;;;;;5032915;28;20913;-69
2023/09/21 06:34:12;;;;;;;1999.90;999.90;;;19.40;99.90;;;;;;5032988;28;21324;-69
2023/09/21 06:36:37;;;;;;;1999.90;999.90;;;19.40;99.90;;;;;;5033078;28;20786;-68
2023/09/21 06:39:05;;;;;;;1999.90;999.90;;;19.40;99.90;;;;;;5032897;28;20412;-69
2023/09/21 06:41:31;;;;;;;1999.90;999.90;;;19.40;99.90;;;;;;5032840;28;20559;-67
2023/09/21 06:43:57;;;;;;;1999.90;999.90;;;19.50;99.90;;;;;;5029669;28;20405;-68
2023/09/21 06:46:23;;;;;;;1999.90;999.90;;;19.60;99.90;;;;;;5023274;28;20175;-68
2023/09/21 06:48:48;;;;;;;1999.90;999.90;;;19.60;99.90;;;;;;5022770;28;20173;-67
2023/09/21 06:51:14;;;;;;;1999.90;999.90;;;19.60;99.90;;;;;;5021969;28;20470;-67
2023/09/21 06:53:40;;;;;;;1999.90;999.90;;;19.60;99.90;;;;;;5024438;28;20211;-67
2023/09/21 06:56:06;;;;;;;1999.90;999.90;;;19.70;99.90;;;;;;5032688;28;20511;-68
2023/09/21 06:58:32;;;;;;;1999.90;999.90;;;19.80;99.90;;;;;;5018407;28;20429;-67
2023/09/21 07:01:01;;;;;;;1999.90;999.90;;;19.80;99.90;;;;;;5016149;28;20280;-68
2023/09/21 07:03:26;;;;;;;1999.90;999.90;;;19.90;99.90;;;;;;5020952;28;20255;-68
2023/09/21 07:05:52;;;;;;;1999.90;999.90;;;20.00;99.90;;;;;;5026543;28;20850;-68
2023/09/21 07:08:19;;;;;;;1999.90;999.90;;;20.00;99.90;;;;;;5032418;28;20175;-69
2023/09/21 07:10:45;;;;;;;1999.90;999.90;;;20.00;99.90;;;;;;5014069;28;20302;-68
2023/09/21 07:13:11;;;;;;;1999.90;999.90;;;20.10;99.90;;;;;;5023224;28;20527;-68
2023/09/21 07:15:38;;;;;;;1999.90;999.90;;;20.20;99.90;;;;;;5023932;28;20409;-68
2023/09/21 07:18:07;;;;;;;1999.90;999.90;;;20.20;99.90;;;;;;5024147;28;20182;-69
2023/09/21 07:20:33;;;;;;;1999.90;999.90;;;20.20;99.90;;;;;;5032014;28;20825;-69
2023/09/21 07:22:59;;;;;;;1999.90;999.90;;;20.30;99.90;;;;;;5031057;28;20440;-67
2023/09/21 07:25:26;;;;;;;1999.90;999.90;;;20.30;99.90;;;;;;5023567;28;20418;-69
2023/09/21 07:27:54;;;;;;;1999.90;999.90;;;20.40;99.90;;;;;;5031965;28;20185;-68
2023/09/21 07:30:25;;;;;;;1999.90;999.90;;;20.40;99.90;;;;;;5031897;28;20551;-69
2023/09/21 07:32:51;;;;;;;1999.90;999.90;;;20.50;99.90;;;;;;5026681;28;20448;-68
2023/09/21 07:35:19;;;;;;;1999.90;999.90;;;20.60;99.90;;;;;;5023551;28;20411;-68
2023/09/21 07:37:46;;;;;;;1999.90;999.90;;;20.60;99.90;;;;;;5032021;28;20177;-69
2023/09/21 07:40:16;;;;;;;1999.90;999.90;;;20.60;99.90;;;;;;5031837;28;20426;-68
2023/09/21 07:42:45;;;;;;;1999.90;999.90;;;20.70;99.90;;;;;;5032116;28;20779;-69
2023/09/21 07:45:11;;;;;;;1999.90;999.90;;;20.80;99.90;;;;;;5031730;28;20924;-69
2023/09/21 07:47:38;;;;;;;1999.90;999.90;;;20.80;99.90;;;;;;5031908;28;20407;-68
2023/09/21 07:50:05;;;;;;;1999.90;999.90;;;20.90;99.90;;;;;;5031809;28;20423;-69
2023/09/21 07:52:32;;;;;;;1999.90;999.90;;;20.90;99.90;;;;;;5013790;28;20565;-69
2023/09/21 07:55:02;;;;;;;1999.90;999.90;;;20.90;99.90;;;;;;5019328;28;20521;-68
2023/09/21 07:57:31;;;;;;;1999.90;999.90;;;21.00;99.90;;;;;;5023810;28;20406;-68
2023/09/21 07:59:57;;;;;;;1999.90;999.90;;;21.00;99.90;;;;;;5023200;28;20937;-68
2023/09/21 08:02:22;;;;;;;1999.90;999.90;;;21.10;99.90;;;;;;5023136;28;20492;-68
2023/09/21 08:04:49;;;;;;;1999.90;999.90;;;21.10;99.90;;;;;;5014031;28;20184;-68
2023/09/21 08:07:14;;;;;;;1999.90;999.90;;;21.20;99.90;;;;;;5016541;28;20179;-68
2023/09/21 08:09:40;;;;;;;1999.90;999.90;;;21.20;99.90;;;;;;5012279;28;20460;-68
2023/09/21 08:12:06;;;;;;;1999.90;999.90;;;21.30;99.90;;;;;;5027392;28;20694;-69
2023/09/21 08:14:34;;;;;;;1999.90;999.90;;;21.30;99.90;;;;;;5024317;28;20186;-68
2023/09/21 08:17:00;;;;;;;1999.90;999.90;;;21.40;99.90;;;;;;5018504;28;20991;-68
2023/09/21 08:19:26;;;;;;;1999.90;999.90;;;21.50;99.90;;;;;;5016631;28;20509;-69
2023/09/21 08:21:51;;;;;;;1999.90;999.90;;;21.50;99.90;;;;;;5022054;28;20215;-68
2023/09/21 08:24:17;;;;;;;1999.90;999.90;;;21.60;99.90;;;;;;5014036;28;20196;-69
2023/09/21 08:26:42;;;;;;;1999.90;999.90;;;21.60;99.90;;;;;;5012348;28;20180;-68
2023/09/21 08:29:08;;;;;;;1999.90;999.90;;;21.70;99.90;;;;;;5028175;28;20641;-69
2023/09/21 08:31:33;;;;;;;1999.90;999.90;;;21.70;99.90;;;;;;5035238;28;20200;-69
2023/09/21 08:33:59;;;;;;;1999.90;999.90;;;21.80;99.90;;;;;;5034792;28;20168;-68
2023/09/21 08:36:25;;;;;;;1999.90;999.90;;;21.90;99.90;;;;;;5034587;28;20173;-68
2023/09/21 08:38:53;;;;;;;1999.90;999.90;;;22.00;99.90;;;;;;5035345;28;20175;-67
2023/09/21 08:41:19;;;;;;;1999.90;999.90;;;22.00;99.90;;;;;;5035291;28;20429;-68
2023/09/21 08:43:45;;;;;;;1999.90;999.90;;;22.00;99.90;;;;;;5034913;28;20407;-67
2023/09/21 08:46:12;;;;;;;1999.90;999.90;;;22.10;99.90;;;;;;5034976;28;20168;-68
2023/09/21 08:48:39;;;;;;;1999.90;999.90;;;22.10;99.90;;;;;;5035200;28;20415;-69
2023/09/21 08:51:11;;;;;;;1999.90;999.90;;;22.00;99.90;;;;;;5035008;28;20556;-68
2023/09/21 08:53:39;;;;;;;1999.90;999.90;;;22.00;99.90;;;;;;5035000;28;20393;-68
2023/09/21 08:56:05;;;;;;;1999.90;999.90;;;22.00;99.90;;;;;;5034839;28;20407;-68
2023/09/21 08:58:37;;;;;;;1999.90;999.90;;;22.10;99.90;;;;;;5034914;28;20449;-69
2023/09/21 09:01:03;;;;;;;1999.90;999.90;;;22.00;99.90;;;;;;5034826;28;20406;-69
2023/09/21 09:03:30;;;;;;;1999.90;999.90;;;22.00;99.90;;;;;;5034571;28;20437;-68
2023/09/21 09:05:58;;;;;;;1999.90;999.90;;;22.20;99.90;;;;;;5034564;28;20168;-68
2023/09/21 09:08:25;;;;;;;1999.90;999.90;;;22.20;99.90;;;;;;5034561;28;20388;-67
2023/09/21 09:10:53;;;;;;;1999.90;999.90;;;22.30;99.90;;;;;;5034639;28;20456;-68
2023/09/21 09:13:19;;;;;;;1999.90;999.90;;;22.30;99.90;;;;;;5034356;28;20426;-68
2023/09/21 09:15:45;;;;;;;1999.90;999.90;;;22.30;99.90;;;;;;5034473;28;20384;-69
2023/09/21 09:18:14;;;;;;;1999.90;999.90;;;22.30;99.90;;;;;;5034635;28;20465;-69
2023/09/21 09:20:44;;;;;;;1999.90;999.90;;;22.30;99.90;;;;;;5034564;28;20654;-68
2023/09/21 09:23:12;;;;;;;1999.90;999.90;;;22.30;99.90;;;;;;5034536;28;20422;-68
2023/09/21 09:25:39;;;;;;;1999.90;999.90;;;22.30;99.90;;;;;;5034381;28;20407;-69
2023/09/21 09:28:07;;;;;;;1999.90;999.90;;;22.20;99.90;;;;;;5034414;28;20391;-68
2023/09/21 09:30:35;;;;;;;1999.90;999.90;;;22.10;99.90;;;;;;5034650;28;20448;-68
2023/09/21 09:33:02;;;;;;;1999.90;999.90;;;22.10;99.90;;;;;;5034100;28;20426;-68
2023/09/21 09:35:28;;;;;;;1999.90;999.90;;;22.10;99.90;;;;;;5033902;28;20377;-68
2023/09/21 09:37:55;;;;;;;1999.90;999.90;;;22.00;99.90;;;;;;5034094;28;20399;-68
2023/09/21 09:40:23;;;;;;;1999.90;999.90;;;22.00;99.90;;;;;;5032926;28;20411;-68
2023/09/21 09:42:51;;;;;;;1999.90;999.90;;;22.00;99.90;;;;;;5034263;28;20973;-69
2023/09/21 09:45:30;;;;;;;1999.90;999.90;;;22.10;99.90;;;;;;5034079;28;20909;-69
2023/09/21 09:47:57;;;;;;;1999.90;999.90;;;22.00;99.90;;;;;;5034338;28;20408;-69
2023/09/21 09:50:24;;;;;;;1999.90;999.90;;;22.10;99.90;;;;;;5034155;28;20519;-68
2023/09/21 09:53:10;;;;;;;1999.90;999.90;;;22.10;99.90;;;;;;5034260;28;20397;-69
2023/09/21 09:55:36;;;;;;;1999.90;999.90;;;22.10;99.90;;;;;;5034145;28;20389;-69
2023/09/21 09:58:03;;;;;;;1999.90;999.90;;;22.20;99.90;;;;;;5034214;28;20773;-68
2023/09/21 10:00:30;;;;;;;1999.90;999.90;;;22.20;99.90;;;;;;5034212;28;20225;-68
2023/09/21 10:02:57;;;;;;;1999.90;999.90;;;22.20;99.90;;;;;;5034116;28;20490;-68
2023/09/21 10:05:25;;;;;;;1999.90;999.90;;;22.20;99.90;;;;;;5033443;28;20407;-68
2023/09/21 10:07:52;;;;;;;1999.90;999.90;;;22.20;99.90;;;;;;5033989;28;20407;-68
2023/09/21 10:10:20;;;;;;;1999.90;999.90;;;22.20;99.90;;;;;;5033659;28;20452;-68
2023/09/21 10:12:51;;;;;;;1999.90;999.90;;;22.20;99.90;;;;;;5033935;28;20431;-68
2023/09/21 10:15:17;;;;;;;1999.90;999.90;;;22.20;99.90;;;;;;5033666;28;20505;-68
2023/09/21 10:17:43;;;;;;;1999.90;999.90;;;22.20;99.90;;;;;;5034159;28;20402;-69
2023/09/21 10:20:15;;;;;;;1999.90;999.90;;;22.20;99.90;;;;;;5033565;28;20420;-68
2023/09/21 10:22:46;;;;;;;1999.90;999.90;;;22.30;99.90;;;;;;5033116;28;20192;-68
2023/09/21 10:25:13;;;;;;;1999.90;999.90;;;22.30;99.90;;;;;;5033273;28;20393;-68
2023/09/21 10:27:39;;;;;;;1999.90;999.90;;;22.30;99.90;;;;;;5033229;28;20463;-67
2023/09/21 10:30:15;;;;;;;1999.90;999.90;;;22.30;99.90;;;;;;5033283;28;20486;-68
2023/09/21 10:32:49;;;;;;;1999.90;999.90;;;22.30;99.90;;;;;;5033162;28;20421;-67
2023/09/21 10:35:40;;;;;;;1999.90;999.90;;;22.30;99.90;;;;;;5032831;28;20375;-68
2023/09/21 10:38:12;;;;;;;1999.90;999.90;;;22.30;99.90;;;;;;5030925;28;20377;-69
2023/09/21 10:40:40;;;;;;;1999.90;999.90;;;22.30;99.90;;;;;;5022497;28;20935;-68
2023/09/21 10:43:37;;;;;;;1999.90;999.90;;;22.40;99.90;;;;;;5021152;28;20886;-68
2023/09/21 10:46:06;;;;;;;1999.90;999.90;;;22.30;99.90;;;;;;5015547;28;20773;-68
2023/09/21 10:48:32;;;;;;;1999.90;999.90;;;22.30;99.90;;;;;;5013215;28;20882;-69
2023/09/21 10:50:58;;;;;;;1999.90;999.90;;;22.40;99.90;;;;;;5016848;28;20450;-68
2023/09/21 10:53:23;;;;;;;1999.90;999.90;;;22.40;99.90;;;;;;5015876;28;20246;-68
2023/09/21 10:55:50;;;;;;;1999.90;999.90;;;22.30;99.90;;;;;;5020315;28;20387;-68
2023/09/21 10:58:19;;;;;;;1999.90;999.90;;;22.30;99.90;;;;;;5021373;28;20482;-68
2023/09/21 11:00:44;;;;;;;1999.90;999.90;;;22.40;99.90;;;;;;4993402;28;21114;-67
2023/09/21 11:03:11;;;;;;;1999.90;999.90;;;22.40;99.90;;;;;;4993171;28;20398;-68
2023/09/21 11:05:38;;;;;;;1999.90;999.90;;;22.40;99.90;;;;;;4999475;28;20267;-69
2023/09/21 11:08:04;;;;;;;1999.90;999.90;;;22.40;99.90;;;;;;5006233;28;20393;-68
2023/09/21 11:10:31;;;;;;;1999.90;999.90;;;22.40;99.90;;;;;;5018718;28;20458;-68
2023/09/21 11:12:57;;;;;;;1999.90;999.90;;;22.40;99.90;;;;;;5011461;28;20458;-69
2023/09/21 11:15:23;;;;;;;1999.90;999.90;;;22.50;99.90;;;;;;5017859;28;20415;-68
2023/09/21 11:17:48;;;;;;;1999.90;999.90;;;22.50;99.90;;;;;;5022241;28;20227;-68
2023/09/21 11:20:19;;;;;;;1999.90;999.90;;;22.40;99.90;;;;;;5016647;28;20219;-68
2023/09/21 11:22:48;;;;;;;1999.90;999.90;;;22.50;99.90;;;;;;5025134;28;20642;-68
2023/09/21 11:25:16;;;;;;;1999.90;999.90;;;22.50;99.90;;;;;;5023691;28;20413;-68
2023/09/21 11:27:42;;;;;;;1999.90;999.90;;;22.50;99.90;;;;;;5032528;28;20432;-68
2023/09/21 11:30:10;;;;;;;1999.90;999.90;;;22.50;99.90;;;;;;5022911;28;20955;-69
2023/09/21 11:32:50;;;;;;;1999.90;999.90;;;22.50;99.90;;;;;;5030626;28;20343;-69
2023/09/21 11:35:17;;;;;;;1999.90;999.90;;;22.50;99.90;;;;;;5028203;28;20480;-69
2023/09/21 11:37:43;;;;;;;1999.90;999.90;;;22.50;99.90;;;;;;5023700;28;20382;-68
2023/09/21 11:40:13;;;;;;;1999.90;999.90;;;22.40;99.90;;;;;;5032078;28;20413;-67
2023/09/21 11:42:45;;;;;;;1999.90;999.90;;;22.40;99.90;;;;;;5024878;28;20863;-67
2023/09/21 11:45:19;;;;;;;1999.90;999.90;;;22.40;99.90;;;;;;5019583;28;21111;-67
2023/09/21 11:47:54;;;;;;;1999.90;999.90;;;22.40;99.90;;;;;;5000500;28;20427;-69
2023/09/21 11:50:25;;;;;;;1999.90;999.90;;;22.40;99.90;;;;;;5010369;28;20963;-68
2023/09/21 11:52:54;;;;;;;1999.90;999.90;;;22.50;99.90;;;;;;5015010;28;20435;-69
2023/09/21 11:55:21;;;;;;;1999.90;999.90;;;22.60;99.90;;;;;;5007672;28;20416;-70
2023/09/21 11:57:49;;;;;;;1999.90;999.90;;;22.60;99.90;;;;;;4988488;28;20409;-68
2023/09/21 12:00:26;;;;;;;1999.90;999.90;;;22.70;99.90;;;;;;5012269;28;20426;-67
2023/09/21 12:02:53;;;;;;;1999.90;999.90;;;22.70;99.90;;;;;;4987303;28;20411;-68
2023/09/21 12:05:20;;;;;;;1999.90;999.90;;;22.70;99.90;;;;;;5006502;28;20406;-68